Time;durP1;ratioP1;P1;durP2;ratioP2;P2;SDS_P1;SDS_P2;PMS_P1;PMS_P2;Temp;Humidity;BMP_temperature;BMP_pressure;BME280_temperature;BME280_humidity;BME280_pressure;Samples;Min_cycle;Max_cycle;Signal;HPM_P1;HPM_P2
2023/08/31 00:06:07;;;;;;;21.83;4.68;;;22.20;72.70;;;;;;5085319;22;20161;-80
2023/08/31 00:08:33;;;;;;;15.55;4.00;;;22.10;72.70;;;;;;5092006;28;20036;-77
2023/08/31 00:11:00;;;;;;;23.90;4.43;;;22.10;72.50;;;;;;5091784;28;20063;-79
2023/08/31 00:13:27;;;;;;;18.35;4.90;;;22.10;72.50;;;;;;5091979;28;20058;-78
2023/08/31 00:15:57;;;;;;;18.10;4.47;;;22.10;72.40;;;;;;5091959;28;20028;-80
2023/08/31 00:18:24;;;;;;;15.18;4.13;;;22.10;72.40;;;;;;5092029;28;20376;-78
2023/08/31 00:20:50;;;;;;;24.50;4.38;;;22.10;72.90;;;;;;5091811;28;20032;-79
2023/08/31 00:23:15;;;;;;;17.35;4.93;;;22.00;72.80;;;;;;5092246;28;20055;-78
2023/08/31 00:25:43;;;;;;;15.52;4.47;;;22.00;72.70;;;;;;5077504;28;20067;-79
2023/08/31 00:28:09;;;;;;;17.17;4.60;;;22.00;72.60;;;;;;5095537;28;20084;-78
2023/08/31 00:30:35;;;;;;;16.65;4.65;;;21.90;72.30;;;;;;5077191;28;20085;-79
2023/08/31 00:33:01;;;;;;;13.85;4.70;;;21.90;72.30;;;;;;5077262;28;20177;-77
2023/08/31 00:35:27;;;;;;;17.38;4.60;;;22.00;72.70;;;;;;5095737;28;20048;-77
2023/08/31 00:37:58;;;;;;;13.00;4.00;;;22.00;72.40;;;;;;5095659;28;20083;-80
2023/08/31 00:40:28;;;;;;;15.43;4.45;;;21.80;72.20;;;;;;5095495;28;20028;-78
2023/08/31 00:42:53;;;;;;;14.93;4.70;;;21.90;72.30;;;;;;5077171;28;20032;-80
2023/08/31 00:45:20;;;;;;;13.02;3.67;;;21.90;72.20;;;;;;5095153;28;20028;-78
2023/08/31 00:47:49;;;;;;;13.45;3.85;;;21.90;72.10;;;;;;5077245;28;20123;-78
2023/08/31 00:50:15;;;;;;;11.55;4.05;;;21.90;72.50;;;;;;5077178;28;20060;-79
2023/08/31 00:52:44;;;;;;;16.02;4.40;;;21.80;72.00;;;;;;5095237;28;20078;-79
2023/08/31 00:55:10;;;;;;;14.10;4.10;;;21.80;72.30;;;;;;5095328;28;20449;-79
2023/08/31 00:57:36;;;;;;;15.65;4.28;;;21.80;72.20;;;;;;5094797;28;20388;-79
2023/08/31 01:00:06;;;;;;;12.68;3.58;;;21.70;72.20;;;;;;5095972;28;20044;-78
2023/08/31 01:02:48;;;;;;;18.55;4.30;;;21.70;72.20;;;;;;5094920;28;20028;-78
2023/08/31 01:05:28;;;;;;;12.43;3.90;;;21.70;73.00;;;;;;5095106;28;20051;-78
2023/08/31 01:08:18;;;;;;;12.93;3.80;;;21.70;72.30;;;;;;5076943;28;20550;-79
2023/08/31 01:11:31;;;;;;;12.50;3.42;;;21.70;72.20;;;;;;5095021;28;20060;-78
2023/08/31 01:14:11;;;;;;;8.50;2.72;;;21.60;73.60;;;;;;5092737;28;20040;-80
2023/08/31 01:16:42;;;;;;;14.32;4.07;;;21.60;72.30;;;;;;5094731;28;20028;-78
2023/08/31 01:19:21;;;;;;;14.85;3.72;;;21.60;72.30;;;;;;5094981;28;20126;-80
2023/08/31 01:21:50;;;;;;;11.52;3.70;;;21.60;72.30;;;;;;5094539;28;20081;-78
2023/08/31 01:24:17;;;;;;;17.15;4.78;;;21.60;72.20;;;;;;5094494;28;20036;-80
2023/08/31 01:26:43;;;;;;;17.17;4.32;;;21.70;72.40;;;;;;5094443;28;20063;-78
2023/08/31 01:29:09;;;;;;;14.43;3.63;;;21.60;72.20;;;;;;5110305;28;20460;-78
2023/08/31 01:31:43;;;;;;;16.35;4.00;;;21.70;72.20;;;;;;5076273;28;20119;-79
2023/08/31 01:34:09;;;;;;;14.20;3.85;;;21.70;72.20;;;;;;5094629;28;20387;-78
2023/08/31 01:36:38;;;;;;;15.52;3.95;;;21.70;72.30;;;;;;5094504;28;20028;-78
2023/08/31 01:39:18;;;;;;;13.40;4.28;;;21.70;72.20;;;;;;5095124;28;20380;-79
2023/08/31 01:41:50;;;;;;;14.02;3.92;;;21.60;72.90;;;;;;5094580;28;20160;-78
2023/08/31 01:44:19;;;;;;;13.73;4.18;;;21.60;72.30;;;;;;5076109;28;20054;-79
2023/08/31 01:46:55;;;;;;;13.27;3.70;;;21.50;72.30;;;;;;5094489;28;20038;-80
2023/08/31 01:49:21;;;;;;;19.63;4.63;;;21.50;72.30;;;;;;5093995;28;20122;-78
2023/08/31 01:51:47;;;;;;;15.75;3.83;;;21.40;72.30;;;;;;5094189;28;20506;-78
2023/08/31 01:54:13;;;;;;;12.15;3.75;;;21.50;72.50;;;;;;5093845;28;20059;-77
2023/08/31 01:56:38;;;;;;;14.65;3.97;;;21.40;72.50;;;;;;5094082;28;20486;-79
2023/08/31 01:59:04;;;;;;;13.02;3.60;;;21.40;72.40;;;;;;5094335;28;20036;-79
2023/08/31 02:01:32;;;;;;;12.88;4.00;;;21.50;72.60;;;;;;5094014;28;20028;-78
2023/08/31 02:03:58;;;;;;;13.93;3.92;;;21.40;72.40;;;;;;5094016;28;20345;-80
2023/08/31 02:06:24;;;;;;;13.73;4.32;;;21.40;72.30;;;;;;5093860;28;20048;-78
2023/08/31 02:08:49;;;;;;;14.45;3.60;;;21.40;72.30;;;;;;5093944;28;20036;-79
2023/08/31 02:11:15;;;;;;;15.77;3.95;;;21.40;72.40;;;;;;5093718;28;20043;-79
2023/08/31 02:13:42;;;;;;;15.65;3.88;;;21.40;72.20;;;;;;5093791;28;20116;-77
2023/08/31 02:16:08;;;;;;;14.80;4.35;;;21.30;72.40;;;;;;5093649;28;20089;-78
2023/08/31 02:18:33;;;;;;;15.13;4.28;;;21.30;72.50;;;;;;5093352;28;20043;-78
2023/08/31 02:20:59;;;;;;;17.80;4.07;;;21.30;72.60;;;;;;5093578;28;20055;-79
2023/08/31 02:23:25;;;;;;;11.73;3.75;;;21.30;72.50;;;;;;5093672;28;20154;-79
2023/08/31 02:25:50;;;;;;;15.00;4.03;;;21.20;72.60;;;;;;5093704;28;20036;-77
2023/08/31 02:28:17;;;;;;;14.88;4.13;;;21.20;72.50;;;;;;5075106;28;20036;-78
2023/08/31 02:30:46;;;;;;;14.32;3.90;;;21.10;72.40;;;;;;5093431;28;20059;-77
2023/08/31 02:33:11;;;;;;;15.15;4.05;;;21.10;72.50;;;;;;5093261;28;20020;-77
2023/08/31 02:35:37;;;;;;;15.48;3.95;;;21.00;72.80;;;;;;5093178;28;20048;-80
2023/08/31 02:38:03;;;;;;;15.13;4.88;;;21.00;72.90;;;;;;5074670;28;20562;-81
2023/08/31 02:40:29;;;;;;;19.92;4.30;;;21.00;72.90;;;;;;5075145;28;20036;-78
2023/08/31 02:42:54;;;;;;;13.50;4.05;;;21.00;72.90;;;;;;5093302;28;20549;-78
2023/08/31 02:45:20;;;;;;;13.57;3.38;;;21.00;72.80;;;;;;5093021;28;20395;-79
2023/08/31 02:47:46;;;;;;;11.55;3.17;;;20.90;72.70;;;;;;5092003;28;20028;-80
2023/08/31 02:50:12;;;;;;;10.65;3.50;;;20.90;72.90;;;;;;5093144;28;20511;-79
2023/08/31 02:52:38;;;;;;;19.20;4.00;;;20.90;73.00;;;;;;5093084;28;20060;-78
2023/08/31 02:55:04;;;;;;;14.23;4.15;;;20.90;72.90;;;;;;5074800;28;20040;-78
2023/08/31 02:57:30;;;;;;;10.00;3.42;;;20.90;73.20;;;;;;5092943;28;20039;-78
2023/08/31 02:59:56;;;;;;;14.50;3.53;;;20.90;73.00;;;;;;5077329;28;20032;-78
2023/08/31 03:02:22;;;;;;;13.05;3.70;;;20.80;72.70;;;;;;5092535;28;20039;-78
2023/08/31 03:04:47;;;;;;;12.30;3.28;;;20.80;72.90;;;;;;5092719;28;20056;-78
2023/08/31 03:07:15;;;;;;;13.05;3.53;;;20.80;72.90;;;;;;5092741;28;20468;-78
2023/08/31 03:09:41;;;;;;;12.52;3.85;;;20.80;72.90;;;;;;5092981;28;20164;-79
2023/08/31 03:12:06;;;;;;;14.10;4.10;;;20.80;72.80;;;;;;5092631;28;20568;-79
2023/08/31 03:14:32;;;;;;;17.10;3.78;;;20.80;72.80;;;;;;5074129;28;20147;-77
2023/08/31 03:16:58;;;;;;;11.70;3.92;;;20.80;72.80;;;;;;5092570;28;20511;-77
2023/08/31 03:19:23;;;;;;;14.93;3.58;;;20.80;72.80;;;;;;5092739;28;20032;-79
2023/08/31 03:21:50;;;;;;;14.27;3.85;;;20.80;73.10;;;;;;5092589;28;20064;-78
2023/08/31 03:24:15;;;;;;;14.05;3.53;;;20.80;72.80;;;;;;5092699;28;20036;-78
2023/08/31 03:26:41;;;;;;;13.35;3.70;;;20.80;72.90;;;;;;5092640;28;20034;-78
2023/08/31 03:29:07;;;;;;;17.15;3.70;;;20.80;72.90;;;;;;5092431;28;20093;-78
2023/08/31 03:31:33;;;;;;;13.32;3.78;;;20.80;72.80;;;;;;5092095;28;20391;-79
2023/08/31 03:33:59;;;;;;;16.50;4.28;;;20.80;72.70;;;;;;5092196;28;20119;-78
2023/08/31 03:36:24;;;;;;;14.43;3.50;;;20.80;72.70;;;;;;5092323;28;20032;-77
2023/08/31 03:38:50;;;;;;;10.35;3.47;;;20.80;72.60;;;;;;5092423;28;20028;-77
2023/08/31 03:41:16;;;;;;;13.68;3.42;;;20.80;72.70;;;;;;5092495;28;20127;-78
2023/08/31 03:43:41;;;;;;;11.60;3.33;;;20.80;72.80;;;;;;5092428;28;20028;-78
2023/08/31 03:46:07;;;;;;;13.95;3.67;;;20.80;72.70;;;;;;5092575;28;20511;-79
2023/08/31 03:48:33;;;;;;;15.40;4.05;;;20.80;72.70;;;;;;5093935;28;20036;-79
2023/08/31 03:50:58;;;;;;;13.80;3.67;;;20.70;72.70;;;;;;5094033;28;20040;-78
2023/08/31 03:53:24;;;;;;;14.77;4.05;;;20.70;72.60;;;;;;5093239;28;20036;-77
2023/08/31 03:55:50;;;;;;;13.07;3.95;;;20.70;72.50;;;;;;5092230;28;20043;-78
2023/08/31 03:58:16;;;;;;;12.52;3.17;;;20.70;72.80;;;;;;5092672;28;20368;-79
2023/08/31 04:00:42;;;;;;;15.60;4.10;;;20.60;72.70;;;;;;5096210;28;20125;-78
2023/08/31 04:03:09;;;;;;;10.25;4.00;;;20.60;73.00;;;;;;5096237;28;20078;-80
2023/08/31 04:05:35;;;;;;;19.85;4.40;;;20.60;72.70;;;;;;5095944;28;20058;-80
2023/08/31 04:08:02;;;;;;;12.48;3.75;;;20.60;73.60;;;;;;5096208;28;20063;-79
2023/08/31 04:10:29;;;;;;;12.10;3.55;;;20.60;73.20;;;;;;5096097;28;20437;-80
2023/08/31 04:12:55;;;;;;;15.93;3.90;;;20.70;72.80;;;;;;5096317;28;20035;-78
2023/08/31 04:15:21;;;;;;;12.02;3.63;;;20.60;72.70;;;;;;5096068;28;20048;-77
2023/08/31 04:17:47;;;;;;;12.13;4.28;;;20.60;73.00;;;;;;5095909;28;20036;-79
2023/08/31 04:20:13;;;;;;;11.82;3.85;;;20.60;72.90;;;;;;5077816;28;20097;-80
2023/08/31 04:22:38;;;;;;;14.25;3.28;;;20.50;73.10;;;;;;5096162;28;20064;-79
2023/08/31 04:25:04;;;;;;;15.05;4.10;;;20.50;73.10;;;;;;5095967;28;20141;-74
2023/08/31 04:27:31;;;;;;;15.32;4.00;;;20.60;73.20;;;;;;5095570;28;20046;-78
2023/08/31 04:30:00;;;;;;;11.55;3.55;;;20.60;73.30;;;;;;5095879;28;20063;-78
2023/08/31 04:32:26;;;;;;;14.02;3.75;;;20.50;73.10;;;;;;5095506;28;20056;-78
2023/08/31 04:34:52;;;;;;;13.10;3.60;;;20.40;73.30;;;;;;5095406;28;20082;-78
2023/08/31 04:37:18;;;;;;;12.07;3.78;;;20.40;73.30;;;;;;5095428;28;20024;-78
2023/08/31 04:39:43;;;;;;;11.50;3.83;;;20.40;73.40;;;;;;5077109;28;20380;-78
2023/08/31 04:42:09;;;;;;;13.63;3.85;;;20.40;73.40;;;;;;5095497;28;20036;-77
2023/08/31 04:44:35;;;;;;;13.73;3.70;;;20.50;73.30;;;;;;5077448;28;20426;-78
2023/08/31 04:47:01;;;;;;;12.27;3.35;;;20.50;73.20;;;;;;5097928;28;20051;-79
2023/08/31 04:49:26;;;;;;;12.95;3.60;;;20.50;73.10;;;;;;5078917;28;20047;-78
2023/08/31 04:51:52;;;;;;;13.75;3.40;;;20.50;73.20;;;;;;5076853;28;20040;-80
2023/08/31 04:54:18;;;;;;;15.85;4.10;;;20.50;73.20;;;;;;5094950;28;20089;-78
2023/08/31 04:56:44;;;;;;;9.40;3.33;;;20.40;73.20;;;;;;5077060;28;20056;-80
2023/08/31 04:59:10;;;;;;;13.40;3.75;;;20.50;73.40;;;;;;5096401;28;20103;-80
2023/08/31 05:01:35;;;;;;;17.65;4.32;;;20.50;73.30;;;;;;5077030;28;20032;-79
2023/08/31 05:04:03;;;;;;;14.65;4.13;;;20.50;73.40;;;;;;5095123;28;20032;-78
2023/08/31 05:06:28;;;;;;;9.80;3.58;;;20.50;73.20;;;;;;5094861;28;20044;-77
2023/08/31 05:08:54;;;;;;;15.57;3.88;;;20.50;73.30;;;;;;5095255;28;20028;-79
2023/08/31 05:11:20;;;;;;;16.40;4.75;;;20.50;73.40;;;;;;5095409;28;20040;-78
2023/08/31 05:13:46;;;;;;;15.32;3.80;;;20.50;73.30;;;;;;5096101;28;20036;-78
2023/08/31 05:16:12;;;;;;;18.58;4.75;;;20.50;73.20;;;;;;5095171;28;20040;-81
2023/08/31 05:18:39;;;;;;;11.55;4.22;;;20.60;73.30;;;;;;5095465;28;20043;-78
2023/08/31 05:21:05;;;;;;;14.88;4.32;;;20.60;73.10;;;;;;5077542;28;20040;-79
2023/08/31 05:23:31;;;;;;;14.55;3.97;;;20.60;73.10;;;;;;5094684;28;20032;-79
2023/08/31 05:25:57;;;;;;;11.20;3.95;;;20.60;73.10;;;;;;5094742;28;20028;-79
2023/08/31 05:28:23;;;;;;;13.05;3.92;;;20.70;73.10;;;;;;5094564;28;20395;-80
2023/08/31 05:30:50;;;;;;;16.05;4.13;;;20.70;73.10;;;;;;5094391;28;20024;-79
2023/08/31 05:33:22;;;;;;;23.17;5.28;;;20.70;73.10;;;;;;5094746;28;20036;-78
2023/08/31 05:35:48;;;;;;;13.45;3.72;;;20.70;74.00;;;;;;5094518;28;20040;-78
2023/08/31 05:38:14;;;;;;;15.38;4.13;;;20.70;73.10;;;;;;5094625;28;20086;-77
2023/08/31 05:40:45;;;;;;;13.82;4.68;;;20.70;73.30;;;;;;5076591;28;20426;-78
2023/08/31 05:43:11;;;;;;;16.35;4.65;;;20.70;73.30;;;;;;5076306;28;20032;-78
2023/08/31 05:45:36;;;;;;;14.25;4.82;;;20.80;73.30;;;;;;5094224;28;20063;-81
2023/08/31 05:48:02;;;;;;;13.23;4.45;;;20.90;73.40;;;;;;5094281;28;20030;-78
2023/08/31 05:50:28;;;;;;;15.68;4.22;;;21.00;73.10;;;;;;5094118;28;20134;-78
2023/08/31 05:52:55;;;;;;;15.70;4.80;;;21.10;72.80;;;;;;5075961;28;20044;-78
2023/08/31 05:55:21;;;;;;;13.90;4.13;;;21.30;72.30;;;;;;5075790;28;20131;-79
2023/08/31 05:57:46;;;;;;;14.20;4.57;;;21.60;72.20;;;;;;5093760;28;20060;-77
2023/08/31 06:00:12;;;;;;;14.52;4.13;;;21.80;71.60;;;;;;5094310;28;20051;-79
2023/08/31 06:02:38;;;;;;;14.40;4.22;;;22.10;71.40;;;;;;5094150;28;20357;-78
